sensor_id;sensor_type;location;lat;lon;timestamp;temperature;humidity
39453;DHT22;25154;-33.684;151.102;2023-07-29T00:00:08;18.80;99.90
39453;DHT22;25154;-33.684;151.102;2023-07-29T00:05:11;19.10;99.90
39453;DHT22;25154;-33.684;151.102;2023-07-29T00:10:14;18.90;99.90
39453;DHT22;25154;-33.684;151.102;2023-07-29T00:15:16;18.30;99.90
39453;DHT22;25154;-33.684;151.102;2023-07-29T00:20:18;18.80;99.90
39453;DHT22;25154;-33.684;151.102;2023-07-29T00:25:22;19.00;99.90
39453;DHT22;25154;-33.684;151.102;2023-07-29T00:30:25;19.50;99.90
39453;DHT22;25154;-33.684;151.102;2023-07-29T00:35:28;19.60;99.90
39453;DHT22;25154;-33.684;151.102;2023-07-29T00:40:31;19.90;99.90
39453;DHT22;25154;-33.684;151.102;2023-07-29T00:45:38;19.90;99.90
39453;DHT22;25154;-33.684;151.102;2023-07-29T00:50:41;20.10;99.90
39453;DHT22;25154;-33.684;151.102;2023-07-29T00:55:43;20.30;99.90
39453;DHT22;25154;-33.684;151.102;2023-07-29T01:00:46;20.30;99.90
39453;DHT22;25154;-33.684;151.102;2023-07-29T01:06:23;20.40;99.90
39453;DHT22;25154;-33.684;151.102;2023-07-29T01:11:56;20.80;99.90
39453;DHT22;25154;-33.684;151.102;2023-07-29T01:17:06;20.70;99.70
39453;DHT22;25154;-33.684;151.102;2023-07-29T01:22:11;20.70;99.90
39453;DHT22;25154;-33.684;151.102;2023-07-29T01:27:15;20.00;99.90
39453;DHT22;25154;-33.684;151.102;2023-07-29T01:32:47;19.70;99.90
39453;DHT22;25154;-33.684;151.102;2023-07-29T01:38:13;19.50;99.90
39453;DHT22;25154;-33.684;151.102;2023-07-29T01:43:16;20.90;99.90
39453;DHT22;25154;-33.684;151.102;2023-07-29T01:48:20;22.30;99.10
39453;DHT22;25154;-33.684;151.102;2023-07-29T01:53:23;22.60;97.70
39453;DHT22;25154;-33.684;151.102;2023-07-29T01:58:25;23.40;97.60
39453;DHT22;25154;-33.684;151.102;2023-07-29T02:03:28;23.90;93.80
39453;DHT22;25154;-33.684;151.102;2023-07-29T02:08:31;23.70;94.20
39453;DHT22;25154;-33.684;151.102;2023-07-29T02:13:34;22.70;95.80
39453;DHT22;25154;-33.684;151.102;2023-07-29T02:18:38;22.90;96.90
39453;DHT22;25154;-33.684;151.102;2023-07-29T02:23:41;23.60;94.60
39453;DHT22;25154;-33.684;151.102;2023-07-29T02:28:43;23.60;94.80
39453;DHT22;25154;-33.684;151.102;2023-07-29T02:33:46;23.10;95.60
39453;DHT22;25154;-33.684;151.102;2023-07-29T02:38:49;22.40;96.00
39453;DHT22;25154;-33.684;151.102;2023-07-29T02:43:52;21.90;98.20
39453;DHT22;25154;-33.684;151.102;2023-07-29T02:48:55;21.80;98.00
39453;DHT22;25154;-33.684;151.102;2023-07-29T02:53:58;22.70;96.50
39453;DHT22;25154;-33.684;151.102;2023-07-29T02:59:00;23.10;96.30
39453;DHT22;25154;-33.684;151.102;2023-07-29T03:04:03;22.80;95.80
39453;DHT22;25154;-33.684;151.102;2023-07-29T03:09:06;22.50;98.00
39453;DHT22;25154;-33.684;151.102;2023-07-29T03:14:09;22.10;97.40
39453;DHT22;25154;-33.684;151.102;2023-07-29T03:19:13;22.20;97.80
39453;DHT22;25154;-33.684;151.102;2023-07-29T03:24:15;21.80;95.50
39453;DHT22;25154;-33.684;151.102;2023-07-29T03:29:18;22.00;96.90
39453;DHT22;25154;-33.684;151.102;2023-07-29T03:34:21;22.20;97.60
39453;DHT22;25154;-33.684;151.102;2023-07-29T03:39:24;22.60;97.40
39453;DHT22;25154;-33.684;151.102;2023-07-29T03:44:26;23.80;95.70
39453;DHT22;25154;-33.684;151.102;2023-07-29T03:49:29;24.50;93.30
39453;DHT22;25154;-33.684;151.102;2023-07-29T03:54:32;24.10;93.30
39453;DHT22;25154;-33.684;151.102;2023-07-29T03:59:34;23.90;92.60
39453;DHT22;25154;-33.684;151.102;2023-07-29T04:04:37;24.30;93.10
39453;DHT22;25154;-33.684;151.102;2023-07-29T04:09:40;23.70;93.40
39453;DHT22;25154;-33.684;151.102;2023-07-29T04:14:45;23.20;93.50
39453;DHT22;25154;-33.684;151.102;2023-07-29T04:19:47;23.40;94.10
39453;DHT22;25154;-33.684;151.102;2023-07-29T04:24:50;23.70;93.00
39453;DHT22;25154;-33.684;151.102;2023-07-29T04:29:53;23.30;94.10
39453;DHT22;25154;-33.684;151.102;2023-07-29T04:34:56;23.10;94.50
39453;DHT22;25154;-33.684;151.102;2023-07-29T04:39:58;22.00;95.50
39453;DHT22;25154;-33.684;151.102;2023-07-29T04:45:01;21.70;97.30
39453;DHT22;25154;-33.684;151.102;2023-07-29T04:50:04;21.40;97.00
39453;DHT22;25154;-33.684;151.102;2023-07-29T04:55:08;21.20;98.20
39453;DHT22;25154;-33.684;151.102;2023-07-29T05:00:11;21.50;97.00
39453;DHT22;25154;-33.684;151.102;2023-07-29T05:05:14;22.10;96.30
39453;DHT22;25154;-33.684;151.102;2023-07-29T05:10:16;23.10;94.00
39453;DHT22;25154;-33.684;151.102;2023-07-29T05:15:19;23.20;93.40
39453;DHT22;25154;-33.684;151.102;2023-07-29T05:20:22;21.80;97.00
39453;DHT22;25154;-33.684;151.102;2023-07-29T05:25:25;21.30;99.90
39453;DHT22;25154;-33.684;151.102;2023-07-29T05:30:28;21.10;99.30
39453;DHT22;25154;-33.684;151.102;2023-07-29T05:35:33;21.10;99.80
39453;DHT22;25154;-33.684;151.102;2023-07-29T05:40:35;21.00;99.90
39453;DHT22;25154;-33.684;151.102;2023-07-29T05:45:38;21.20;99.90
39453;DHT22;25154;-33.684;151.102;2023-07-29T05:50:41;21.50;99.90
39453;DHT22;25154;-33.684;151.102;2023-07-29T05:55:44;22.90;96.10
39453;DHT22;25154;-33.684;151.102;2023-07-29T06:00:47;29.00;87.10
39453;DHT22;25154;-33.684;151.102;2023-07-29T06:05:50;27.20;88.40
39453;DHT22;25154;-33.684;151.102;2023-07-29T06:10:52;23.90;93.60
39453;DHT22;25154;-33.684;151.102;2023-07-29T06:15:55;22.20;98.60
39453;DHT22;25154;-33.684;151.102;2023-07-29T06:20:58;21.00;99.90
39453;DHT22;25154;-33.684;151.102;2023-07-29T06:26:01;20.50;99.90
39453;DHT22;25154;-33.684;151.102;2023-07-29T06:31:03;20.70;99.90
39453;DHT22;25154;-33.684;151.102;2023-07-29T06:36:06;20.70;99.90
39453;DHT22;25154;-33.684;151.102;2023-07-29T06:41:09;20.80;99.90
39453;DHT22;25154;-33.684;151.102;2023-07-29T06:46:12;20.00;99.90
39453;DHT22;25154;-33.684;151.102;2023-07-29T06:51:15;19.40;99.90
39453;DHT22;25154;-33.684;151.102;2023-07-29T06:56:17;18.80;99.90
39453;DHT22;25154;-33.684;151.102;2023-07-29T07:01:20;18.50;99.90
39453;DHT22;25154;-33.684;151.102;2023-07-29T07:06:23;18.00;99.90
39453;DHT22;25154;-33.684;151.102;2023-07-29T07:11:26;17.60;99.90
39453;DHT22;25154;-33.684;151.102;2023-07-29T07:16:29;17.40;99.90
39453;DHT22;25154;-33.684;151.102;2023-07-29T07:21:32;17.00;99.90
39453;DHT22;25154;-33.684;151.102;2023-07-29T07:26:35;16.80;99.90
39453;DHT22;25154;-33.684;151.102;2023-07-29T07:31:38;16.60;99.90
39453;DHT22;25154;-33.684;151.102;2023-07-29T07:36:40;16.40;99.90
39453;DHT22;25154;-33.684;151.102;2023-07-29T07:41:43;16.40;99.90
39453;DHT22;25154;-33.684;151.102;2023-07-29T07:46:46;16.20;99.90
39453;DHT22;25154;-33.684;151.102;2023-07-29T07:51:49;15.90;99.90
39453;DHT22;25154;-33.684;151.102;2023-07-29T07:56:51;15.90;99.90
39453;DHT22;25154;-33.684;151.102;2023-07-29T08:01:54;15.50;99.90
39453;DHT22;25154;-33.684;151.102;2023-07-29T08:06:57;15.30;99.90
39453;DHT22;25154;-33.684;151.102;2023-07-29T08:12:00;15.10;99.90
39453;DHT22;25154;-33.684;151.102;2023-07-29T08:17:02;15.10;99.90
39453;DHT22;25154;-33.684;151.102;2023-07-29T08:22:05;14.60;99.90
39453;DHT22;25154;-33.684;151.102;2023-07-29T08:27:08;14.70;99.90
39453;DHT22;25154;-33.684;151.102;2023-07-29T08:32:11;14.70;99.90
39453;DHT22;25154;-33.684;151.102;2023-07-29T08:37:14;14.40;99.90
39453;DHT22;25154;-33.684;151.102;2023-07-29T08:42:19;14.10;99.90
39453;DHT22;25154;-33.684;151.102;2023-07-29T08:47:21;14.10;99.90
39453;DHT22;25154;-33.684;151.102;2023-07-29T08:52:24;14.00;99.90
39453;DHT22;25154;-33.684;151.102;2023-07-29T08:57:28;13.80;99.90
39453;DHT22;25154;-33.684;151.102;2023-07-29T09:02:32;13.90;99.90
39453;DHT22;25154;-33.684;151.102;2023-07-29T09:07:35;13.60;99.90
39453;DHT22;25154;-33.684;151.102;2023-07-29T09:12:39;13.70;99.90
39453;DHT22;25154;-33.684;151.102;2023-07-29T09:17:42;13.60;99.90
39453;DHT22;25154;-33.684;151.102;2023-07-29T09:22:44;13.40;99.90
39453;DHT22;25154;-33.684;151.102;2023-07-29T09:27:47;13.20;99.90
39453;DHT22;25154;-33.684;151.102;2023-07-29T09:32:55;13.20;99.90
39453;DHT22;25154;-33.684;151.102;2023-07-29T09:37:58;13.20;99.90
39453;DHT22;25154;-33.684;151.102;2023-07-29T09:43:01;12.90;99.90
39453;DHT22;25154;-33.684;151.102;2023-07-29T09:48:05;12.80;99.90
39453;DHT22;25154;-33.684;151.102;2023-07-29T09:53:11;12.90;99.90
39453;DHT22;25154;-33.684;151.102;2023-07-29T09:58:14;12.90;99.90
39453;DHT22;25154;-33.684;151.102;2023-07-29T10:03:17;12.80;99.90
39453;DHT22;25154;-33.684;151.102;2023-07-29T10:08:23;12.80;99.90
39453;DHT22;25154;-33.684;151.102;2023-07-29T10:13:27;12.80;99.90
39453;DHT22;25154;-33.684;151.102;2023-07-29T10:18:30;12.50;99.90
39453;DHT22;25154;-33.684;151.102;2023-07-29T10:23:40;12.50;99.90
39453;DHT22;25154;-33.684;151.102;2023-07-29T10:28:47;12.60;99.90
39453;DHT22;25154;-33.684;151.102;2023-07-29T10:33:50;12.40;99.90
39453;DHT22;25154;-33.684;151.102;2023-07-29T10:38:53;12.40;99.90
39453;DHT22;25154;-33.684;151.102;2023-07-29T10:43:57;12.30;99.90
39453;DHT22;25154;-33.684;151.102;2023-07-29T10:49:02;12.10;99.90
39453;DHT22;25154;-33.684;151.102;2023-07-29T10:54:14;12.10;99.90
39453;DHT22;25154;-33.684;151.102;2023-07-29T11:10:02;12.00;99.90
39453;DHT22;25154;-33.684;151.102;2023-07-29T11:15:24;11.80;99.90
39453;DHT22;25154;-33.684;151.102;2023-07-29T11:20:28;11.90;99.90
39453;DHT22;25154;-33.684;151.102;2023-07-29T11:25:32;11.80;99.90
39453;DHT22;25154;-33.684;151.102;2023-07-29T11:30:40;11.80;99.90
39453;DHT22;25154;-33.684;151.102;2023-07-29T11:35:43;11.80;99.90
39453;DHT22;25154;-33.684;151.102;2023-07-29T11:41:02;11.80;99.90
39453;DHT22;25154;-33.684;151.102;2023-07-29T11:46:05;11.80;99.90
39453;DHT22;25154;-33.684;151.102;2023-07-29T11:51:08;11.60;99.90
39453;DHT22;25154;-33.684;151.102;2023-07-29T11:56:13;11.60;99.90
39453;DHT22;25154;-33.684;151.102;2023-07-29T12:01:16;11.20;99.90
39453;DHT22;25154;-33.684;151.102;2023-07-29T12:06:20;11.50;99.90
39453;DHT22;25154;-33.684;151.102;2023-07-29T12:11:22;11.50;99.90
39453;DHT22;25154;-33.684;151.102;2023-07-29T12:16:25;11.40;99.90
39453;DHT22;25154;-33.684;151.102;2023-07-29T12:21:27;11.20;99.90
39453;DHT22;25154;-33.684;151.102;2023-07-29T12:26:31;11.30;99.90
39453;DHT22;25154;-33.684;151.102;2023-07-29T12:31:33;11.20;99.90
39453;DHT22;25154;-33.684;151.102;2023-07-29T12:36:44;11.30;99.90
39453;DHT22;25154;-33.684;151.102;2023-07-29T12:41:46;11.20;99.90
39453;DHT22;25154;-33.684;151.102;2023-07-29T12:46:49;11.10;99.90
39453;DHT22;25154;-33.684;151.102;2023-07-29T12:51:53;11.30;99.90
39453;DHT22;25154;-33.684;151.102;2023-07-29T12:56:55;10.90;99.90
39453;DHT22;25154;-33.684;151.102;2023-07-29T13:01:57;11.00;99.90
39453;DHT22;25154;-33.684;151.102;2023-07-29T13:07:00;11.00;99.90
39453;DHT22;25154;-33.684;151.102;2023-07-29T13:12:02;11.00;99.90
39453;DHT22;25154;-33.684;151.102;2023-07-29T13:17:05;10.90;99.90
39453;DHT22;25154;-33.684;151.102;2023-07-29T13:22:07;10.90;99.90
39453;DHT22;25154;-33.684;151.102;2023-07-29T13:27:09;10.80;99.90
39453;DHT22;25154;-33.684;151.102;2023-07-29T13:32:12;10.70;99.90
39453;DHT22;25154;-33.684;151.102;2023-07-29T13:37:14;10.80;99.90
39453;DHT22;25154;-33.684;151.102;2023-07-29T13:42:16;10.80;99.90
39453;DHT22;25154;-33.684;151.102;2023-07-29T13:47:20;10.80;99.90
39453;DHT22;25154;-33.684;151.102;2023-07-29T13:52:22;10.70;99.90
39453;DHT22;25154;-33.684;151.102;2023-07-29T13:57:24;10.60;99.90
39453;DHT22;25154;-33.684;151.102;2023-07-29T14:02:27;10.70;99.90
39453;DHT22;25154;-33.684;151.102;2023-07-29T14:07:30;10.70;99.90
39453;DHT22;25154;-33.684;151.102;2023-07-29T14:12:32;10.40;99.90
39453;DHT22;25154;-33.684;151.102;2023-07-29T14:17:34;10.50;99.90
39453;DHT22;25154;-33.684;151.102;2023-07-29T14:22:37;10.50;99.90
39453;DHT22;25154;-33.684;151.102;2023-07-29T14:27:39;10.40;99.90
39453;DHT22;25154;-33.684;151.102;2023-07-29T14:32:46;10.40;99.90
39453;DHT22;25154;-33.684;151.102;2023-07-29T14:37:49;10.30;99.90
39453;DHT22;25154;-33.684;151.102;2023-07-29T14:42:51;10.40;99.90
39453;DHT22;25154;-33.684;151.102;2023-07-29T14:47:53;10.30;99.90
39453;DHT22;25154;-33.684;151.102;2023-07-29T14:52:56;10.20;99.90
39453;DHT22;25154;-33.684;151.102;2023-07-29T14:57:58;10.20;99.90
39453;DHT22;25154;-33.684;151.102;2023-07-29T15:03:00;10.40;99.90
39453;DHT22;25154;-33.684;151.102;2023-07-29T15:08:03;10.30;99.90
39453;DHT22;25154;-33.684;151.102;2023-07-29T15:13:05;10.20;99.90
39453;DHT22;25154;-33.684;151.102;2023-07-29T15:18:07;10.10;99.90
39453;DHT22;25154;-33.684;151.102;2023-07-29T15:23:10;9.90;99.90
39453;DHT22;25154;-33.684;151.102;2023-07-29T15:28:12;9.60;99.90
39453;DHT22;25154;-33.684;151.102;2023-07-29T15:33:14;9.70;99.90
39453;DHT22;25154;-33.684;151.102;2023-07-29T15:38:17;10.00;99.90
39453;DHT22;25154;-33.684;151.102;2023-07-29T15:43:19;9.90;99.90
39453;DHT22;25154;-33.684;151.102;2023-07-29T15:48:22;9.90;99.90
39453;DHT22;25154;-33.684;151.102;2023-07-29T15:53:25;10.00;99.90
39453;DHT22;25154;-33.684;151.102;2023-07-29T15:58:27;10.00;99.90
39453;DHT22;25154;-33.684;151.102;2023-07-29T16:03:29;10.10;99.90
39453;DHT22;25154;-33.684;151.102;2023-07-29T16:08:32;9.90;99.90
39453;DHT22;25154;-33.684;151.102;2023-07-29T16:13:34;9.70;99.90
39453;DHT22;25154;-33.684;151.102;2023-07-29T16:18:36;9.70;99.90
39453;DHT22;25154;-33.684;151.102;2023-07-29T16:23:39;9.60;99.90
39453;DHT22;25154;-33.684;151.102;2023-07-29T16:28:41;9.80;99.90
39453;DHT22;25154;-33.684;151.102;2023-07-29T16:33:45;9.70;99.90
39453;DHT22;25154;-33.684;151.102;2023-07-29T16:38:47;9.70;99.90
39453;DHT22;25154;-33.684;151.102;2023-07-29T16:43:49;9.60;99.90
39453;DHT22;25154;-33.684;151.102;2023-07-29T16:48:52;9.50;99.90
39453;DHT22;25154;-33.684;151.102;2023-07-29T16:53:54;9.40;99.90
39453;DHT22;25154;-33.684;151.102;2023-07-29T16:58:57;9.40;99.90
39453;DHT22;25154;-33.684;151.102;2023-07-29T17:03:59;9.50;99.90
39453;DHT22;25154;-33.684;151.102;2023-07-29T17:09:02;9.30;99.90
39453;DHT22;25154;-33.684;151.102;2023-07-29T17:14:04;9.30;99.90
39453;DHT22;25154;-33.684;151.102;2023-07-29T17:19:06;9.30;99.90
39453;DHT22;25154;-33.684;151.102;2023-07-29T17:24:09;9.40;99.90
39453;DHT22;25154;-33.684;151.102;2023-07-29T17:29:11;9.30;99.90
39453;DHT22;25154;-33.684;151.102;2023-07-29T17:34:14;9.10;99.90
39453;DHT22;25154;-33.684;151.102;2023-07-29T17:39:16;9.20;99.90
39453;DHT22;25154;-33.684;151.102;2023-07-29T17:44:18;9.30;99.90
39453;DHT22;25154;-33.684;151.102;2023-07-29T17:49:21;9.20;99.90
39453;DHT22;25154;-33.684;151.102;2023-07-29T17:54:23;9.30;99.90
39453;DHT22;25154;-33.684;151.102;2023-07-29T17:59:25;9.10;99.90
39453;DHT22;25154;-33.684;151.102;2023-07-29T18:04:27;9.20;99.90
39453;DHT22;25154;-33.684;151.102;2023-07-29T18:09:30;8.90;99.90
39453;DHT22;25154;-33.684;151.102;2023-07-29T18:14:32;8.80;99.90
39453;DHT22;25154;-33.684;151.102;2023-07-29T18:19:34;9.00;99.90
39453;DHT22;25154;-33.684;151.102;2023-07-29T18:24:41;8.90;99.90
39453;DHT22;25154;-33.684;151.102;2023-07-29T18:29:44;9.00;99.90
39453;DHT22;25154;-33.684;151.102;2023-07-29T18:34:46;8.90;99.90
39453;DHT22;25154;-33.684;151.102;2023-07-29T18:39:48;8.80;99.90
39453;DHT22;25154;-33.684;151.102;2023-07-29T18:44:51;8.80;99.90
39453;DHT22;25154;-33.684;151.102;2023-07-29T18:49:53;8.70;99.90
39453;DHT22;25154;-33.684;151.102;2023-07-29T18:54:55;8.60;99.90
39453;DHT22;25154;-33.684;151.102;2023-07-29T18:59:59;8.60;99.90
39453;DHT22;25154;-33.684;151.102;2023-07-29T19:05:06;8.50;99.90
39453;DHT22;25154;-33.684;151.102;2023-07-29T19:10:11;8.50;99.90
39453;DHT22;25154;-33.684;151.102;2023-07-29T19:15:13;8.60;99.90
39453;DHT22;25154;-33.684;151.102;2023-07-29T19:20:16;8.60;99.90
39453;DHT22;25154;-33.684;151.102;2023-07-29T19:25:18;8.70;99.90
39453;DHT22;25154;-33.684;151.102;2023-07-29T19:30:20;8.50;99.90
39453;DHT22;25154;-33.684;151.102;2023-07-29T19:35:24;8.60;99.90
39453;DHT22;25154;-33.684;151.102;2023-07-29T19:40:28;8.30;99.90
39453;DHT22;25154;-33.684;151.102;2023-07-29T19:45:30;8.40;99.90
39453;DHT22;25154;-33.684;151.102;2023-07-29T19:50:32;8.30;99.90
39453;DHT22;25154;-33.684;151.102;2023-07-29T19:55:35;8.20;99.90
39453;DHT22;25154;-33.684;151.102;2023-07-29T20:00:37;8.20;99.90
39453;DHT22;25154;-33.684;151.102;2023-07-29T20:05:40;8.20;99.90
39453;DHT22;25154;-33.684;151.102;2023-07-29T20:10:44;8.30;99.90
39453;DHT22;25154;-33.684;151.102;2023-07-29T20:15:47;8.30;99.90
39453;DHT22;25154;-33.684;151.102;2023-07-29T20:20:51;8.30;99.90
39453;DHT22;25154;-33.684;151.102;2023-07-29T20:25:53;8.30;99.90
39453;DHT22;25154;-33.684;151.102;2023-07-29T20:30:56;8.20;99.90
39453;DHT22;25154;-33.684;151.102;2023-07-29T20:36:00;8.10;99.90
39453;DHT22;25154;-33.684;151.102;2023-07-29T20:41:02;8.10;99.90
39453;DHT22;25154;-33.684;151.102;2023-07-29T20:46:04;8.20;99.90
39453;DHT22;25154;-33.684;151.102;2023-07-29T20:51:07;8.10;99.90
39453;DHT22;25154;-33.684;151.102;2023-07-29T20:56:09;8.40;99.90
39453;DHT22;25154;-33.684;151.102;2023-07-29T21:01:12;8.30;99.90
39453;DHT22;25154;-33.684;151.102;2023-07-29T21:06:14;8.40;99.90
39453;DHT22;25154;-33.684;151.102;2023-07-29T21:11:16;8.40;99.90
39453;DHT22;25154;-33.684;151.102;2023-07-29T21:16:19;8.50;99.90
39453;DHT22;25154;-33.684;151.102;2023-07-29T21:21:21;8.50;99.90
39453;DHT22;25154;-33.684;151.102;2023-07-29T21:26:24;8.70;99.90
39453;DHT22;25154;-33.684;151.102;2023-07-29T21:31:26;8.80;99.90
39453;DHT22;25154;-33.684;151.102;2023-07-29T21:36:28;8.90;99.90
39453;DHT22;25154;-33.684;151.102;2023-07-29T21:41:31;9.20;99.90
39453;DHT22;25154;-33.684;151.102;2023-07-29T21:46:35;9.10;99.90
39453;DHT22;25154;-33.684;151.102;2023-07-29T21:51:38;9.20;99.90
39453;DHT22;25154;-33.684;151.102;2023-07-29T21:56:40;9.50;99.90
39453;DHT22;25154;-33.684;151.102;2023-07-29T22:01:42;9.70;99.90
39453;DHT22;25154;-33.684;151.102;2023-07-29T22:06:45;9.90;99.90
39453;DHT22;25154;-33.684;151.102;2023-07-29T22:11:47;10.10;99.90
39453;DHT22;25154;-33.684;151.102;2023-07-29T22:16:50;10.40;99.90
39453;DHT22;25154;-33.684;151.102;2023-07-29T22:21:53;10.70;99.90
39453;DHT22;25154;-33.684;151.102;2023-07-29T22:26:55;11.20;99.90
39453;DHT22;25154;-33.684;151.102;2023-07-29T22:31:58;11.90;99.90
39453;DHT22;25154;-33.684;151.102;2023-07-29T22:37:00;12.40;99.90
39453;DHT22;25154;-33.684;151.102;2023-07-29T22:42:02;13.10;99.90
39453;DHT22;25154;-33.684;151.102;2023-07-29T22:47:05;13.60;99.90
39453;DHT22;25154;-33.684;151.102;2023-07-29T22:52:08;13.70;99.90
39453;DHT22;25154;-33.684;151.102;2023-07-29T22:57:10;14.00;99.90
39453;DHT22;25154;-33.684;151.102;2023-07-29T23:02:12;14.50;99.90
39453;DHT22;25154;-33.684;151.102;2023-07-29T23:07:14;14.90;99.90
39453;DHT22;25154;-33.684;151.102;2023-07-29T23:12:17;15.20;99.90
39453;DHT22;25154;-33.684;151.102;2023-07-29T23:17:20;15.60;99.90
39453;DHT22;25154;-33.684;151.102;2023-07-29T23:22:22;16.00;99.90
39453;DHT22;25154;-33.684;151.102;2023-07-29T23:27:26;16.30;99.90
39453;DHT22;25154;-33.684;151.102;2023-07-29T23:32:29;16.80;99.90
39453;DHT22;25154;-33.684;151.102;2023-07-29T23:37:31;17.00;99.90
39453;DHT22;25154;-33.684;151.102;2023-07-29T23:42:34;17.30;99.90
39453;DHT22;25154;-33.684;151.102;2023-07-29T23:47:38;17.50;99.90
39453;DHT22;25154;-33.684;151.102;2023-07-29T23:52:40;18.00;99.90
39453;DHT22;25154;-33.684;151.102;2023-07-29T23:57:43;18.30;99.90
